sensor_id;sensor_type;location;lat;lon;timestamp;P1;durP1;ratioP1;P2;durP2;ratioP2
74777;SDS011;63298;53.164;8.610;2023-05-07T00:01:43;10.63;;;7.83;;
74777;SDS011;63298;53.164;8.610;2023-05-07T00:04:09;11.07;;;7.55;;
74777;SDS011;63298;53.164;8.610;2023-05-07T00:06:35;13.23;;;7.95;;
74777;SDS011;63298;53.164;8.610;2023-05-07T00:09:00;11.93;;;7.93;;
74777;SDS011;63298;53.164;8.610;2023-05-07T00:11:26;17.85;;;7.97;;
74777;SDS011;63298;53.164;8.610;2023-05-07T00:13:52;15.88;;;8.93;;
74777;SDS011;63298;53.164;8.610;2023-05-07T00:16:17;16.63;;;8.20;;
74777;SDS011;63298;53.164;8.610;2023-05-07T00:18:43;11.07;;;8.02;;
74777;SDS011;63298;53.164;8.610;2023-05-07T00:21:08;12.45;;;7.63;;
74777;SDS011;63298;53.164;8.610;2023-05-07T00:23:33;11.25;;;7.70;;
74777;SDS011;63298;53.164;8.610;2023-05-07T00:25:59;13.98;;;8.80;;
74777;SDS011;63298;53.164;8.610;2023-05-07T00:28:24;13.55;;;8.32;;
74777;SDS011;63298;53.164;8.610;2023-05-07T00:30:49;11.98;;;7.22;;
74777;SDS011;63298;53.164;8.610;2023-05-07T00:33:14;12.32;;;7.15;;
74777;SDS011;63298;53.164;8.610;2023-05-07T00:35:40;12.10;;;6.97;;
74777;SDS011;63298;53.164;8.610;2023-05-07T00:38:07;10.43;;;7.50;;
74777;SDS011;63298;53.164;8.610;2023-05-07T00:40:32;14.77;;;7.35;;
74777;SDS011;63298;53.164;8.610;2023-05-07T00:42:57;14.32;;;7.93;;
74777;SDS011;63298;53.164;8.610;2023-05-07T00:45:25;14.15;;;8.15;;
74777;SDS011;63298;53.164;8.610;2023-05-07T00:47:54;11.15;;;7.40;;
74777;SDS011;63298;53.164;8.610;2023-05-07T00:50:20;11.10;;;7.15;;
74777;SDS011;63298;53.164;8.610;2023-05-07T00:52:45;12.00;;;8.23;;
74777;SDS011;63298;53.164;8.610;2023-05-07T00:55:11;11.23;;;7.82;;
74777;SDS011;63298;53.164;8.610;2023-05-07T00:57:36;10.88;;;7.22;;
74777;SDS011;63298;53.164;8.610;2023-05-07T01:00:03;11.50;;;7.47;;
74777;SDS011;63298;53.164;8.610;2023-05-07T01:02:29;16.77;;;8.88;;
74777;SDS011;63298;53.164;8.610;2023-05-07T01:04:55;13.43;;;7.30;;
74777;SDS011;63298;53.164;8.610;2023-05-07T01:07:20;11.98;;;7.68;;
74777;SDS011;63298;53.164;8.610;2023-05-07T01:09:47;10.45;;;7.20;;
74777;SDS011;63298;53.164;8.610;2023-05-07T01:12:12;11.10;;;7.40;;
74777;SDS011;63298;53.164;8.610;2023-05-07T01:14:38;11.80;;;7.60;;
74777;SDS011;63298;53.164;8.610;2023-05-07T01:17:03;17.83;;;7.88;;
74777;SDS011;63298;53.164;8.610;2023-05-07T01:19:29;13.38;;;8.23;;
74777;SDS011;63298;53.164;8.610;2023-05-07T01:21:55;12.25;;;7.65;;
74777;SDS011;63298;53.164;8.610;2023-05-07T01:24:26;12.07;;;7.30;;
74777;SDS011;63298;53.164;8.610;2023-05-07T01:26:52;11.38;;;8.10;;
74777;SDS011;63298;53.164;8.610;2023-05-07T01:29:17;13.50;;;7.88;;
74777;SDS011;63298;53.164;8.610;2023-05-07T01:31:42;11.25;;;7.88;;
74777;SDS011;63298;53.164;8.610;2023-05-07T01:34:09;11.60;;;7.13;;
74777;SDS011;63298;53.164;8.610;2023-05-07T01:36:38;11.02;;;7.57;;
74777;SDS011;63298;53.164;8.610;2023-05-07T01:39:05;12.75;;;8.15;;
74777;SDS011;63298;53.164;8.610;2023-05-07T01:41:31;16.35;;;8.02;;
74777;SDS011;63298;53.164;8.610;2023-05-07T01:43:56;11.48;;;7.32;;
74777;SDS011;63298;53.164;8.610;2023-05-07T01:46:24;12.32;;;7.95;;
74777;SDS011;63298;53.164;8.610;2023-05-07T01:48:51;13.85;;;7.90;;
74777;SDS011;63298;53.164;8.610;2023-05-07T01:51:16;14.63;;;8.23;;
74777;SDS011;63298;53.164;8.610;2023-05-07T01:53:42;13.57;;;8.23;;
74777;SDS011;63298;53.164;8.610;2023-05-07T01:56:07;14.67;;;8.20;;
74777;SDS011;63298;53.164;8.610;2023-05-07T01:58:32;12.93;;;8.02;;
74777;SDS011;63298;53.164;8.610;2023-05-07T02:00:58;12.40;;;7.97;;
74777;SDS011;63298;53.164;8.610;2023-05-07T02:03:23;12.70;;;8.07;;
74777;SDS011;63298;53.164;8.610;2023-05-07T02:05:48;14.90;;;8.47;;
74777;SDS011;63298;53.164;8.610;2023-05-07T02:08:14;12.50;;;8.15;;
74777;SDS011;63298;53.164;8.610;2023-05-07T02:10:39;11.90;;;7.97;;
74777;SDS011;63298;53.164;8.610;2023-05-07T02:13:04;14.30;;;8.65;;
74777;SDS011;63298;53.164;8.610;2023-05-07T02:15:30;11.90;;;7.93;;
74777;SDS011;63298;53.164;8.610;2023-05-07T02:18:02;12.65;;;7.13;;
74777;SDS011;63298;53.164;8.610;2023-05-07T02:20:29;11.07;;;7.55;;
74777;SDS011;63298;53.164;8.610;2023-05-07T02:22:54;11.00;;;7.60;;
74777;SDS011;63298;53.164;8.610;2023-05-07T02:25:19;14.25;;;7.88;;
74777;SDS011;63298;53.164;8.610;2023-05-07T02:27:45;12.38;;;7.30;;
74777;SDS011;63298;53.164;8.610;2023-05-07T02:30:10;13.32;;;7.97;;
74777;SDS011;63298;53.164;8.610;2023-05-07T02:32:36;13.18;;;8.05;;
74777;SDS011;63298;53.164;8.610;2023-05-07T02:35:02;14.18;;;6.82;;
74777;SDS011;63298;53.164;8.610;2023-05-07T02:37:28;11.48;;;7.47;;
74777;SDS011;63298;53.164;8.610;2023-05-07T02:39:53;10.43;;;7.17;;
74777;SDS011;63298;53.164;8.610;2023-05-07T02:42:19;11.68;;;6.80;;
74777;SDS011;63298;53.164;8.610;2023-05-07T02:44:44;12.00;;;6.90;;
74777;SDS011;63298;53.164;8.610;2023-05-07T02:47:10;10.32;;;7.05;;
74777;SDS011;63298;53.164;8.610;2023-05-07T02:49:35;10.63;;;7.00;;
74777;SDS011;63298;53.164;8.610;2023-05-07T02:52:00;10.25;;;7.00;;
74777;SDS011;63298;53.164;8.610;2023-05-07T02:54:26;11.23;;;7.00;;
74777;SDS011;63298;53.164;8.610;2023-05-07T02:56:51;13.55;;;7.60;;
74777;SDS011;63298;53.164;8.610;2023-05-07T02:59:17;13.30;;;7.88;;
74777;SDS011;63298;53.164;8.610;2023-05-07T03:01:42;12.32;;;7.60;;
74777;SDS011;63298;53.164;8.610;2023-05-07T03:04:07;13.65;;;7.90;;
74777;SDS011;63298;53.164;8.610;2023-05-07T03:06:33;13.00;;;7.97;;
74777;SDS011;63298;53.164;8.610;2023-05-07T03:08:59;12.57;;;7.65;;
74777;SDS011;63298;53.164;8.610;2023-05-07T03:11:24;13.13;;;7.90;;
74777;SDS011;63298;53.164;8.610;2023-05-07T03:13:50;13.20;;;7.47;;
74777;SDS011;63298;53.164;8.610;2023-05-07T03:16:15;13.48;;;8.02;;
74777;SDS011;63298;53.164;8.610;2023-05-07T03:18:40;12.88;;;7.85;;
74777;SDS011;63298;53.164;8.610;2023-05-07T03:21:06;11.60;;;7.60;;
74777;SDS011;63298;53.164;8.610;2023-05-07T03:23:31;15.48;;;8.50;;
74777;SDS011;63298;53.164;8.610;2023-05-07T03:25:56;11.37;;;7.70;;
74777;SDS011;63298;53.164;8.610;2023-05-07T03:28:22;15.13;;;7.68;;
74777;SDS011;63298;53.164;8.610;2023-05-07T03:30:47;12.77;;;7.53;;
74777;SDS011;63298;53.164;8.610;2023-05-07T03:33:12;15.43;;;8.07;;
74777;SDS011;63298;53.164;8.610;2023-05-07T03:35:37;15.13;;;7.77;;
74777;SDS011;63298;53.164;8.610;2023-05-07T03:38:03;16.37;;;7.80;;
74777;SDS011;63298;53.164;8.610;2023-05-07T03:40:28;14.60;;;8.32;;
74777;SDS011;63298;53.164;8.610;2023-05-07T03:42:53;12.35;;;7.63;;
74777;SDS011;63298;53.164;8.610;2023-05-07T03:45:19;16.38;;;8.10;;
74777;SDS011;63298;53.164;8.610;2023-05-07T03:47:44;11.68;;;7.53;;
74777;SDS011;63298;53.164;8.610;2023-05-07T03:50:09;14.63;;;7.90;;
74777;SDS011;63298;53.164;8.610;2023-05-07T03:52:35;11.07;;;6.93;;
74777;SDS011;63298;53.164;8.610;2023-05-07T03:55:00;15.63;;;8.23;;
74777;SDS011;63298;53.164;8.610;2023-05-07T03:57:26;14.98;;;8.98;;
74777;SDS011;63298;53.164;8.610;2023-05-07T03:59:51;13.48;;;7.72;;
74777;SDS011;63298;53.164;8.610;2023-05-07T04:02:16;13.00;;;8.57;;
74777;SDS011;63298;53.164;8.610;2023-05-07T04:04:42;14.77;;;8.15;;
74777;SDS011;63298;53.164;8.610;2023-05-07T04:07:07;18.57;;;8.37;;
74777;SDS011;63298;53.164;8.610;2023-05-07T04:09:32;14.13;;;7.65;;
74777;SDS011;63298;53.164;8.610;2023-05-07T04:11:58;13.55;;;7.45;;
74777;SDS011;63298;53.164;8.610;2023-05-07T04:14:23;11.95;;;7.47;;
74777;SDS011;63298;53.164;8.610;2023-05-07T04:16:48;10.70;;;7.03;;
74777;SDS011;63298;53.164;8.610;2023-05-07T04:19:13;11.87;;;7.17;;
74777;SDS011;63298;53.164;8.610;2023-05-07T04:21:39;11.75;;;7.30;;
74777;SDS011;63298;53.164;8.610;2023-05-07T04:24:04;9.63;;;6.57;;
74777;SDS011;63298;53.164;8.610;2023-05-07T04:26:31;11.02;;;7.68;;
74777;SDS011;63298;53.164;8.610;2023-05-07T04:28:56;12.68;;;7.45;;
74777;SDS011;63298;53.164;8.610;2023-05-07T04:31:21;12.55;;;7.43;;
74777;SDS011;63298;53.164;8.610;2023-05-07T04:33:47;13.30;;;7.57;;
74777;SDS011;63298;53.164;8.610;2023-05-07T04:36:12;13.35;;;7.55;;
74777;SDS011;63298;53.164;8.610;2023-05-07T04:38:37;12.45;;;7.25;;
74777;SDS011;63298;53.164;8.610;2023-05-07T04:41:03;12.07;;;6.53;;
74777;SDS011;63298;53.164;8.610;2023-05-07T04:43:29;14.38;;;7.43;;
74777;SDS011;63298;53.164;8.610;2023-05-07T04:45:54;14.30;;;7.63;;
74777;SDS011;63298;53.164;8.610;2023-05-07T04:48:20;12.02;;;6.97;;
74777;SDS011;63298;53.164;8.610;2023-05-07T04:50:49;10.38;;;6.82;;
74777;SDS011;63298;53.164;8.610;2023-05-07T04:53:15;11.18;;;6.88;;
74777;SDS011;63298;53.164;8.610;2023-05-07T04:55:41;13.35;;;6.53;;
74777;SDS011;63298;53.164;8.610;2023-05-07T04:58:07;12.93;;;8.13;;
74777;SDS011;63298;53.164;8.610;2023-05-07T05:00:32;13.15;;;6.88;;
74777;SDS011;63298;53.164;8.610;2023-05-07T05:02:58;11.18;;;7.00;;
74777;SDS011;63298;53.164;8.610;2023-05-07T05:05:23;10.73;;;6.60;;
74777;SDS011;63298;53.164;8.610;2023-05-07T05:07:48;12.90;;;7.05;;
74777;SDS011;63298;53.164;8.610;2023-05-07T05:10:13;10.73;;;6.82;;
74777;SDS011;63298;53.164;8.610;2023-05-07T05:12:39;9.73;;;6.57;;
74777;SDS011;63298;53.164;8.610;2023-05-07T05:15:04;9.43;;;6.18;;
74777;SDS011;63298;53.164;8.610;2023-05-07T05:17:30;9.63;;;6.47;;
74777;SDS011;63298;53.164;8.610;2023-05-07T05:19:56;10.15;;;5.82;;
74777;SDS011;63298;53.164;8.610;2023-05-07T05:22:21;8.45;;;5.75;;
74777;SDS011;63298;53.164;8.610;2023-05-07T05:24:46;8.05;;;5.68;;
74777;SDS011;63298;53.164;8.610;2023-05-07T05:27:11;8.55;;;5.47;;
74777;SDS011;63298;53.164;8.610;2023-05-07T05:29:37;9.15;;;6.28;;
74777;SDS011;63298;53.164;8.610;2023-05-07T05:32:02;10.03;;;6.07;;
74777;SDS011;63298;53.164;8.610;2023-05-07T05:34:27;9.18;;;5.63;;
74777;SDS011;63298;53.164;8.610;2023-05-07T05:36:53;8.37;;;5.93;;
74777;SDS011;63298;53.164;8.610;2023-05-07T05:39:18;10.32;;;5.82;;
74777;SDS011;63298;53.164;8.610;2023-05-07T05:41:43;8.23;;;5.27;;
74777;SDS011;63298;53.164;8.610;2023-05-07T05:44:08;6.57;;;5.37;;
74777;SDS011;63298;53.164;8.610;2023-05-07T05:46:34;10.43;;;5.53;;
74777;SDS011;63298;53.164;8.610;2023-05-07T05:48:59;7.88;;;5.88;;
74777;SDS011;63298;53.164;8.610;2023-05-07T05:51:25;7.53;;;5.77;;
74777;SDS011;63298;53.164;8.610;2023-05-07T05:53:50;7.25;;;5.45;;
74777;SDS011;63298;53.164;8.610;2023-05-07T05:56:16;8.43;;;5.57;;
74777;SDS011;63298;53.164;8.610;2023-05-07T05:58:41;9.50;;;5.95;;
74777;SDS011;63298;53.164;8.610;2023-05-07T06:01:07;12.30;;;5.18;;
74777;SDS011;63298;53.164;8.610;2023-05-07T06:03:32;7.72;;;5.35;;
74777;SDS011;63298;53.164;8.610;2023-05-07T06:05:58;9.35;;;5.28;;
74777;SDS011;63298;53.164;8.610;2023-05-07T06:08:23;7.05;;;5.40;;
74777;SDS011;63298;53.164;8.610;2023-05-07T06:10:48;6.57;;;4.80;;
74777;SDS011;63298;53.164;8.610;2023-05-07T06:13:14;6.32;;;4.85;;
74777;SDS011;63298;53.164;8.610;2023-05-07T06:15:39;7.75;;;4.82;;
74777;SDS011;63298;53.164;8.610;2023-05-07T06:18:04;8.10;;;4.90;;
74777;SDS011;63298;53.164;8.610;2023-05-07T06:20:30;6.88;;;4.82;;
74777;SDS011;63298;53.164;8.610;2023-05-07T06:22:55;6.55;;;4.78;;
74777;SDS011;63298;53.164;8.610;2023-05-07T06:25:20;5.70;;;4.40;;
74777;SDS011;63298;53.164;8.610;2023-05-07T06:27:45;6.43;;;4.47;;
74777;SDS011;63298;53.164;8.610;2023-05-07T06:30:11;5.87;;;4.40;;
74777;SDS011;63298;53.164;8.610;2023-05-07T06:32:36;7.18;;;4.80;;
74777;SDS011;63298;53.164;8.610;2023-05-07T06:35:02;5.00;;;4.10;;
74777;SDS011;63298;53.164;8.610;2023-05-07T06:37:27;5.70;;;4.43;;
74777;SDS011;63298;53.164;8.610;2023-05-07T06:39:52;5.63;;;3.73;;
74777;SDS011;63298;53.164;8.610;2023-05-07T06:42:18;4.87;;;4.10;;
74777;SDS011;63298;53.164;8.610;2023-05-07T06:44:43;6.67;;;4.57;;
74777;SDS011;63298;53.164;8.610;2023-05-07T06:47:08;9.77;;;4.00;;
74777;SDS011;63298;53.164;8.610;2023-05-07T06:49:34;6.30;;;4.10;;
74777;SDS011;63298;53.164;8.610;2023-05-07T06:51:59;8.13;;;3.95;;
74777;SDS011;63298;53.164;8.610;2023-05-07T06:54:24;5.93;;;4.15;;
74777;SDS011;63298;53.164;8.610;2023-05-07T06:56:49;5.55;;;3.80;;
74777;SDS011;63298;53.164;8.610;2023-05-07T06:59:15;5.03;;;3.85;;
74777;SDS011;63298;53.164;8.610;2023-05-07T07:01:40;3.50;;;3.20;;
74777;SDS011;63298;53.164;8.610;2023-05-07T07:04:06;4.93;;;4.10;;
74777;SDS011;63298;53.164;8.610;2023-05-07T07:06:31;5.35;;;3.65;;
74777;SDS011;63298;53.164;8.610;2023-05-07T07:08:57;4.80;;;3.90;;
74777;SDS011;63298;53.164;8.610;2023-05-07T07:11:23;5.78;;;3.95;;
74777;SDS011;63298;53.164;8.610;2023-05-07T07:13:48;7.82;;;4.00;;
74777;SDS011;63298;53.164;8.610;2023-05-07T07:16:14;4.13;;;3.72;;
74777;SDS011;63298;53.164;8.610;2023-05-07T07:18:39;3.92;;;3.53;;
74777;SDS011;63298;53.164;8.610;2023-05-07T07:21:04;4.50;;;3.67;;
74777;SDS011;63298;53.164;8.610;2023-05-07T07:23:30;8.90;;;4.20;;
74777;SDS011;63298;53.164;8.610;2023-05-07T07:25:55;4.85;;;3.80;;
74777;SDS011;63298;53.164;8.610;2023-05-07T07:28:21;4.45;;;3.72;;
74777;SDS011;63298;53.164;8.610;2023-05-07T07:30:46;6.20;;;4.47;;
74777;SDS011;63298;53.164;8.610;2023-05-07T07:33:12;7.90;;;4.20;;
74777;SDS011;63298;53.164;8.610;2023-05-07T07:35:37;5.10;;;3.43;;
74777;SDS011;63298;53.164;8.610;2023-05-07T07:38:02;5.43;;;3.90;;
74777;SDS011;63298;53.164;8.610;2023-05-07T07:40:27;5.93;;;3.60;;
74777;SDS011;63298;53.164;8.610;2023-05-07T07:42:53;3.55;;;3.22;;
74777;SDS011;63298;53.164;8.610;2023-05-07T07:45:19;6.88;;;4.07;;
74777;SDS011;63298;53.164;8.610;2023-05-07T07:47:44;5.40;;;3.92;;
74777;SDS011;63298;53.164;8.610;2023-05-07T07:50:09;4.00;;;3.43;;
74777;SDS011;63298;53.164;8.610;2023-05-07T07:52:35;4.63;;;3.70;;
74777;SDS011;63298;53.164;8.610;2023-05-07T07:55:00;6.57;;;3.58;;
74777;SDS011;63298;53.164;8.610;2023-05-07T07:57:26;3.92;;;3.42;;
74777;SDS011;63298;53.164;8.610;2023-05-07T07:59:51;4.38;;;3.67;;
74777;SDS011;63298;53.164;8.610;2023-05-07T08:02:16;5.60;;;4.55;;
74777;SDS011;63298;53.164;8.610;2023-05-07T08:04:42;4.47;;;3.92;;
74777;SDS011;63298;53.164;8.610;2023-05-07T08:07:11;4.80;;;4.30;;
74777;SDS011;63298;53.164;8.610;2023-05-07T08:09:37;4.57;;;3.92;;
74777;SDS011;63298;53.164;8.610;2023-05-07T08:12:05;5.72;;;4.15;;
74777;SDS011;63298;53.164;8.610;2023-05-07T08:14:31;4.80;;;3.80;;
74777;SDS011;63298;53.164;8.610;2023-05-07T08:16:56;5.13;;;3.92;;
74777;SDS011;63298;53.164;8.610;2023-05-07T08:19:21;4.13;;;3.55;;
74777;SDS011;63298;53.164;8.610;2023-05-07T08:21:47;4.45;;;3.85;;
74777;SDS011;63298;53.164;8.610;2023-05-07T08:24:13;5.18;;;3.83;;
74777;SDS011;63298;53.164;8.610;2023-05-07T08:26:39;8.00;;;4.25;;
74777;SDS011;63298;53.164;8.610;2023-05-07T08:29:04;4.97;;;3.80;;
74777;SDS011;63298;53.164;8.610;2023-05-07T08:31:30;4.20;;;3.45;;
74777;SDS011;63298;53.164;8.610;2023-05-07T08:33:55;6.07;;;3.70;;
74777;SDS011;63298;53.164;8.610;2023-05-07T08:36:22;5.43;;;3.63;;
74777;SDS011;63298;53.164;8.610;2023-05-07T08:38:47;5.82;;;3.78;;
74777;SDS011;63298;53.164;8.610;2023-05-07T08:41:12;4.80;;;3.37;;
74777;SDS011;63298;53.164;8.610;2023-05-07T08:43:38;4.13;;;3.72;;
74777;SDS011;63298;53.164;8.610;2023-05-07T08:46:06;4.28;;;3.63;;
74777;SDS011;63298;53.164;8.610;2023-05-07T08:48:34;3.95;;;3.20;;
74777;SDS011;63298;53.164;8.610;2023-05-07T08:51:00;4.63;;;3.40;;
74777;SDS011;63298;53.164;8.610;2023-05-07T08:53:26;5.70;;;3.60;;
74777;SDS011;63298;53.164;8.610;2023-05-07T08:55:51;4.22;;;3.60;;
74777;SDS011;63298;53.164;8.610;2023-05-07T08:58:18;6.63;;;3.65;;
74777;SDS011;63298;53.164;8.610;2023-05-07T09:00:43;3.33;;;3.03;;
74777;SDS011;63298;53.164;8.610;2023-05-07T09:03:09;3.63;;;3.33;;
74777;SDS011;63298;53.164;8.610;2023-05-07T09:05:34;3.92;;;3.05;;
74777;SDS011;63298;53.164;8.610;2023-05-07T09:07:59;4.20;;;3.15;;
74777;SDS011;63298;53.164;8.610;2023-05-07T09:10:26;3.78;;;3.20;;
74777;SDS011;63298;53.164;8.610;2023-05-07T09:12:52;3.60;;;3.30;;
74777;SDS011;63298;53.164;8.610;2023-05-07T09:15:17;3.90;;;3.20;;
74777;SDS011;63298;53.164;8.610;2023-05-07T09:17:43;3.92;;;3.50;;
74777;SDS011;63298;53.164;8.610;2023-05-07T09:20:09;3.80;;;3.40;;
74777;SDS011;63298;53.164;8.610;2023-05-07T09:22:37;5.63;;;3.58;;
74777;SDS011;63298;53.164;8.610;2023-05-07T09:25:04;4.45;;;3.30;;
74777;SDS011;63298;53.164;8.610;2023-05-07T09:27:31;3.88;;;3.50;;
74777;SDS011;63298;53.164;8.610;2023-05-07T09:29:56;3.90;;;3.58;;
74777;SDS011;63298;53.164;8.610;2023-05-07T09:32:22;4.18;;;3.25;;
74777;SDS011;63298;53.164;8.610;2023-05-07T09:34:47;4.18;;;3.42;;
74777;SDS011;63298;53.164;8.610;2023-05-07T09:37:13;6.28;;;4.53;;
74777;SDS011;63298;53.164;8.610;2023-05-07T09:39:45;7.30;;;4.38;;
74777;SDS011;63298;53.164;8.610;2023-05-07T09:42:12;4.93;;;3.67;;
74777;SDS011;63298;53.164;8.610;2023-05-07T09:44:40;3.92;;;3.22;;
74777;SDS011;63298;53.164;8.610;2023-05-07T09:47:06;4.88;;;3.92;;
74777;SDS011;63298;53.164;8.610;2023-05-07T09:49:36;4.32;;;3.13;;
74777;SDS011;63298;53.164;8.610;2023-05-07T09:52:04;5.90;;;3.72;;
74777;SDS011;63298;53.164;8.610;2023-05-07T09:54:31;4.10;;;3.70;;
74777;SDS011;63298;53.164;8.610;2023-05-07T09:56:57;3.70;;;3.30;;
74777;SDS011;63298;53.164;8.610;2023-05-07T09:59:23;4.40;;;3.65;;
74777;SDS011;63298;53.164;8.610;2023-05-07T10:01:50;5.40;;;3.63;;
74777;SDS011;63298;53.164;8.610;2023-05-07T10:04:18;4.32;;;3.50;;
74777;SDS011;63298;53.164;8.610;2023-05-07T10:06:45;4.93;;;3.90;;
74777;SDS011;63298;53.164;8.610;2023-05-07T10:09:11;5.75;;;4.25;;
74777;SDS011;63298;53.164;8.610;2023-05-07T10:11:38;5.40;;;4.15;;
74777;SDS011;63298;53.164;8.610;2023-05-07T10:14:04;5.35;;;3.97;;
74777;SDS011;63298;53.164;8.610;2023-05-07T10:16:31;4.95;;;3.92;;
74777;SDS011;63298;53.164;8.610;2023-05-07T10:18:57;5.15;;;3.83;;
74777;SDS011;63298;53.164;8.610;2023-05-07T10:21:24;5.35;;;4.22;;
74777;SDS011;63298;53.164;8.610;2023-05-07T10:26:23;11.45;;;6.93;;
74777;SDS011;63298;53.164;8.610;2023-05-07T10:28:58;9.00;;;5.57;;
74777;SDS011;63298;53.164;8.610;2023-05-07T10:34:09;5.70;;;4.28;;
74777;SDS011;63298;53.164;8.610;2023-05-07T10:36:38;7.22;;;4.35;;
74777;SDS011;63298;53.164;8.610;2023-05-07T10:39:04;4.35;;;3.75;;
74777;SDS011;63298;53.164;8.610;2023-05-07T10:41:31;5.47;;;4.30;;
74777;SDS011;63298;53.164;8.610;2023-05-07T10:43:56;5.85;;;4.20;;
74777;SDS011;63298;53.164;8.610;2023-05-07T10:46:22;4.97;;;3.97;;
74777;SDS011;63298;53.164;8.610;2023-05-07T10:51:25;5.40;;;4.53;;
74777;SDS011;63298;53.164;8.610;2023-05-07T10:54:17;6.03;;;4.35;;
74777;SDS011;63298;53.164;8.610;2023-05-07T10:56:36;5.63;;;4.50;;
74777;SDS011;63298;53.164;8.610;2023-05-07T10:59:29;5.82;;;4.10;;
74777;SDS011;63298;53.164;8.610;2023-05-07T11:04:15;6.43;;;4.68;;
74777;SDS011;63298;53.164;8.610;2023-05-07T11:06:41;5.75;;;3.92;;
74777;SDS011;63298;53.164;8.610;2023-05-07T11:09:07;5.53;;;4.00;;
74777;SDS011;63298;53.164;8.610;2023-05-07T11:11:45;5.45;;;4.20;;
74777;SDS011;63298;53.164;8.610;2023-05-07T11:14:10;4.53;;;4.10;;
74777;SDS011;63298;53.164;8.610;2023-05-07T11:16:35;5.10;;;4.25;;
74777;SDS011;63298;53.164;8.610;2023-05-07T11:19:02;9.07;;;5.88;;
74777;SDS011;63298;53.164;8.610;2023-05-07T11:21:40;6.72;;;4.70;;
74777;SDS011;63298;53.164;8.610;2023-05-07T11:24:07;6.72;;;4.40;;
74777;SDS011;63298;53.164;8.610;2023-05-07T11:26:44;6.15;;;4.47;;
74777;SDS011;63298;53.164;8.610;2023-05-07T11:31:43;5.25;;;4.75;;
74777;SDS011;63298;53.164;8.610;2023-05-07T11:34:13;5.97;;;4.80;;
74777;SDS011;63298;53.164;8.610;2023-05-07T11:36:41;4.82;;;4.07;;
74777;SDS011;63298;53.164;8.610;2023-05-07T11:39:22;7.05;;;4.28;;
74777;SDS011;63298;53.164;8.610;2023-05-07T11:41:48;4.38;;;3.83;;
74777;SDS011;63298;53.164;8.610;2023-05-07T11:44:14;5.18;;;3.70;;
74777;SDS011;63298;53.164;8.610;2023-05-07T11:46:42;7.45;;;4.30;;
74777;SDS011;63298;53.164;8.610;2023-05-07T11:49:08;5.88;;;4.05;;
74777;SDS011;63298;53.164;8.610;2023-05-07T11:51:33;5.43;;;4.05;;
74777;SDS011;63298;53.164;8.610;2023-05-07T11:53:59;4.53;;;4.13;;
74777;SDS011;63298;53.164;8.610;2023-05-07T11:56:28;11.13;;;4.43;;
74777;SDS011;63298;53.164;8.610;2023-05-07T11:58:57;4.75;;;4.25;;
74777;SDS011;63298;53.164;8.610;2023-05-07T12:01:22;7.57;;;4.67;;
74777;SDS011;63298;53.164;8.610;2023-05-07T12:03:48;7.57;;;4.38;;
74777;SDS011;63298;53.164;8.610;2023-05-07T12:06:14;10.23;;;4.20;;
74777;SDS011;63298;53.164;8.610;2023-05-07T12:08:41;5.55;;;4.30;;
74777;SDS011;63298;53.164;8.610;2023-05-07T12:11:07;5.53;;;3.92;;
74777;SDS011;63298;53.164;8.610;2023-05-07T12:13:34;5.35;;;4.10;;
74777;SDS011;63298;53.164;8.610;2023-05-07T12:16:03;4.72;;;4.18;;
74777;SDS011;63298;53.164;8.610;2023-05-07T12:18:30;6.38;;;4.03;;
74777;SDS011;63298;53.164;8.610;2023-05-07T12:20:56;7.15;;;4.00;;
74777;SDS011;63298;53.164;8.610;2023-05-07T12:23:22;5.97;;;4.50;;
74777;SDS011;63298;53.164;8.610;2023-05-07T12:25:48;5.80;;;4.18;;
74777;SDS011;63298;53.164;8.610;2023-05-07T12:28:14;5.22;;;4.18;;
74777;SDS011;63298;53.164;8.610;2023-05-07T12:30:42;4.32;;;3.88;;
74777;SDS011;63298;53.164;8.610;2023-05-07T12:33:08;5.38;;;3.83;;
74777;SDS011;63298;53.164;8.610;2023-05-07T12:35:39;3.60;;;3.30;;
74777;SDS011;63298;53.164;8.610;2023-05-07T12:38:09;4.63;;;3.85;;
74777;SDS011;63298;53.164;8.610;2023-05-07T12:43:06;6.20;;;4.20;;
74777;SDS011;63298;53.164;8.610;2023-05-07T12:45:31;5.97;;;4.35;;
74777;SDS011;63298;53.164;8.610;2023-05-07T12:48:02;4.65;;;4.03;;
74777;SDS011;63298;53.164;8.610;2023-05-07T12:50:30;4.53;;;4.10;;
74777;SDS011;63298;53.164;8.610;2023-05-07T12:52:57;4.43;;;3.72;;
74777;SDS011;63298;53.164;8.610;2023-05-07T12:55:22;3.63;;;3.30;;
74777;SDS011;63298;53.164;8.610;2023-05-07T12:57:48;4.55;;;4.05;;
74777;SDS011;63298;53.164;8.610;2023-05-07T13:00:14;4.07;;;3.72;;
74777;SDS011;63298;53.164;8.610;2023-05-07T13:02:41;5.20;;;4.22;;
74777;SDS011;63298;53.164;8.610;2023-05-07T13:05:07;5.30;;;3.97;;
74777;SDS011;63298;53.164;8.610;2023-05-07T13:07:33;6.00;;;3.92;;
74777;SDS011;63298;53.164;8.610;2023-05-07T13:09:59;6.15;;;4.13;;
74777;SDS011;63298;53.164;8.610;2023-05-07T13:12:24;4.82;;;4.20;;
74777;SDS011;63298;53.164;8.610;2023-05-07T13:14:49;5.18;;;3.97;;
74777;SDS011;63298;53.164;8.610;2023-05-07T13:17:15;5.50;;;3.40;;
74777;SDS011;63298;53.164;8.610;2023-05-07T13:19:40;7.78;;;4.00;;
74777;SDS011;63298;53.164;8.610;2023-05-07T13:22:07;4.80;;;3.85;;
74777;SDS011;63298;53.164;8.610;2023-05-07T13:24:32;7.55;;;3.92;;
74777;SDS011;63298;53.164;8.610;2023-05-07T13:26:58;6.80;;;3.35;;
74777;SDS011;63298;53.164;8.610;2023-05-07T13:29:23;9.55;;;4.05;;
74777;SDS011;63298;53.164;8.610;2023-05-07T13:31:48;4.30;;;3.90;;
74777;SDS011;63298;53.164;8.610;2023-05-07T13:37:35;3.80;;;3.50;;
74777;SDS011;63298;53.164;8.610;2023-05-07T13:40:01;4.65;;;3.58;;
74777;SDS011;63298;53.164;8.610;2023-05-07T13:42:26;4.30;;;3.60;;
74777;SDS011;63298;53.164;8.610;2023-05-07T13:44:51;5.13;;;3.35;;
74777;SDS011;63298;53.164;8.610;2023-05-07T13:47:17;3.40;;;3.10;;
74777;SDS011;63298;53.164;8.610;2023-05-07T13:49:42;3.40;;;3.10;;
74777;SDS011;63298;53.164;8.610;2023-05-07T13:52:07;3.50;;;3.20;;
74777;SDS011;63298;53.164;8.610;2023-05-07T13:54:33;6.28;;;4.80;;
74777;SDS011;63298;53.164;8.610;2023-05-07T13:56:58;7.32;;;4.53;;
74777;SDS011;63298;53.164;8.610;2023-05-07T13:59:23;3.67;;;3.38;;
74777;SDS011;63298;53.164;8.610;2023-05-07T14:01:49;4.10;;;3.70;;
74777;SDS011;63298;53.164;8.610;2023-05-07T14:04:14;5.47;;;3.95;;
74777;SDS011;63298;53.164;8.610;2023-05-07T14:06:39;5.63;;;3.00;;
74777;SDS011;63298;53.164;8.610;2023-05-07T14:09:05;4.35;;;3.00;;
74777;SDS011;63298;53.164;8.610;2023-05-07T14:11:30;2.92;;;2.63;;
74777;SDS011;63298;53.164;8.610;2023-05-07T14:13:55;4.03;;;2.63;;
74777;SDS011;63298;53.164;8.610;2023-05-07T14:16:21;6.43;;;2.88;;
74777;SDS011;63298;53.164;8.610;2023-05-07T14:18:46;2.78;;;2.58;;
74777;SDS011;63298;53.164;8.610;2023-05-07T14:21:11;3.75;;;3.17;;
74777;SDS011;63298;53.164;8.610;2023-05-07T14:23:36;4.57;;;2.72;;
74777;SDS011;63298;53.164;8.610;2023-05-07T14:26:02;5.63;;;3.00;;
74777;SDS011;63298;53.164;8.610;2023-05-07T14:31:49;3.15;;;2.85;;
74777;SDS011;63298;53.164;8.610;2023-05-07T14:34:14;3.22;;;2.78;;
74777;SDS011;63298;53.164;8.610;2023-05-07T14:36:40;4.72;;;3.22;;
74777;SDS011;63298;53.164;8.610;2023-05-07T14:39:05;3.15;;;2.50;;
74777;SDS011;63298;53.164;8.610;2023-05-07T14:41:30;2.97;;;2.72;;
74777;SDS011;63298;53.164;8.610;2023-05-07T14:43:56;5.13;;;2.72;;
74777;SDS011;63298;53.164;8.610;2023-05-07T14:46:21;3.58;;;2.42;;
74777;SDS011;63298;53.164;8.610;2023-05-07T14:48:47;2.90;;;2.70;;
74777;SDS011;63298;53.164;8.610;2023-05-07T14:51:12;3.13;;;2.83;;
74777;SDS011;63298;53.164;8.610;2023-05-07T14:53:38;2.88;;;2.63;;
74777;SDS011;63298;53.164;8.610;2023-05-07T14:56:05;5.30;;;3.20;;
74777;SDS011;63298;53.164;8.610;2023-05-07T14:58:31;7.20;;;3.17;;